createdAt,value
2023-04-15T00:00:58.785Z,42.75
2023-04-15T00:03:25.644Z,74.80
2023-04-15T00:05:52.431Z,85.60
2023-04-15T00:08:19.059Z,93.25
2023-04-15T00:10:45.724Z,46.25
2023-04-15T00:13:12.445Z,47.50
2023-04-15T00:15:39.125Z,89.00
2023-04-15T00:18:07.499Z,47.75
2023-04-15T00:20:34.225Z,52.75
2023-04-15T00:23:02.369Z,64.50
2023-04-15T00:25:28.976Z,92.40
2023-04-15T00:27:55.570Z,68.20
2023-04-15T00:30:22.521Z,51.50
2023-04-15T00:32:49.150Z,72.00
2023-04-15T00:35:17.254Z,59.50
2023-04-15T00:37:45.933Z,52.00
2023-04-15T00:40:13.894Z,53.25
2023-04-15T00:42:41.046Z,58.00
2023-04-15T00:45:08.888Z,75.25
2023-04-15T00:47:37.669Z,101.40
2023-04-15T00:50:07.825Z,1031.00
2023-04-15T00:52:35.870Z,99.00
2023-04-15T00:55:03.487Z,99.00
2023-04-15T00:57:32.931Z,107.25
2023-04-15T01:00:00.792Z,100.25
2023-04-15T01:02:27.645Z,186.00
2023-04-15T01:04:54.566Z,109.40
2023-04-15T01:07:21.226Z,76.75
2023-04-15T01:09:49.319Z,112.40
2023-04-15T01:12:17.887Z,51.50
2023-04-15T01:14:44.597Z,104.80
2023-04-15T01:17:11.301Z,103.00
2023-04-15T01:19:38.299Z,93.00
2023-04-15T01:22:04.999Z,1257.40
2023-04-15T01:24:32.628Z,112.00
2023-04-15T01:27:00.997Z,52.00
2023-04-15T01:29:27.773Z,54.50
2023-04-15T01:31:55.854Z,55.75
2023-04-15T01:34:22.834Z,120.00
2023-04-15T01:36:49.520Z,114.00
2023-04-15T01:39:16.176Z,98.25
2023-04-15T01:41:42.742Z,82.50
2023-04-15T01:44:10.877Z,62.67
2023-04-15T01:46:37.967Z,152.50
2023-04-15T01:49:04.738Z,86.75
2023-04-15T01:51:31.444Z,104.20
2023-04-15T01:53:58.002Z,69.00
2023-04-15T01:56:24.793Z,97.50
2023-04-15T01:58:51.406Z,114.20
2023-04-15T02:01:19.639Z,127.75
2023-04-15T02:03:46.803Z,54.00
2023-04-15T02:06:13.416Z,119.40
2023-04-15T02:08:40.042Z,72.50
2023-04-15T02:11:06.624Z,83.75
2023-04-15T02:13:33.233Z,99.50
2023-04-15T02:16:00.209Z,59.50
2023-04-15T02:18:32.326Z,58.75
2023-04-15T02:20:59.188Z,155.40
2023-04-15T02:23:26.018Z,95.60
2023-04-15T02:25:53.329Z,99.40
2023-04-15T02:28:21.026Z,115.00
2023-04-15T02:30:48.385Z,116.60
2023-04-15T02:33:14.994Z,88.25
2023-04-15T02:35:45.005Z,59.40
2023-04-15T02:38:11.610Z,72.67
2023-04-15T02:40:38.177Z,62.75
2023-04-15T02:43:04.815Z,86.25
2023-04-15T02:45:31.459Z,108.80
2023-04-15T02:47:58.333Z,2169.75
2023-04-15T02:50:25.060Z,62.25
2023-04-15T02:52:53.125Z,62.75
2023-04-15T02:55:19.884Z,1149.50
2023-04-15T02:57:47.596Z,60.00
2023-04-15T03:00:14.655Z,121.25
2023-04-15T03:02:41.465Z,64.50
2023-04-15T03:05:12.059Z,58.00
2023-04-15T03:07:39.871Z,53.75
2023-04-15T03:10:09.146Z,349.75
2023-04-15T03:12:35.746Z,73.80
2023-04-15T03:15:02.349Z,102.50
2023-04-15T03:17:28.985Z,892.00
2023-04-15T03:19:55.669Z,64.25
2023-04-15T03:22:22.287Z,64.20
2023-04-15T03:24:48.852Z,63.75
2023-04-15T03:27:16.808Z,61.80
2023-04-15T03:29:43.411Z,50.75
2023-04-15T03:32:10.066Z,484.60
2023-04-15T03:34:37.846Z,1554.50
2023-04-15T03:37:05.246Z,76.75
2023-04-15T03:39:31.857Z,66.80
2023-04-15T03:41:59.180Z,69.00
2023-04-15T03:44:27.835Z,57.00
2023-04-15T03:46:54.534Z,46.75
2023-04-15T03:49:21.147Z,49.75
2023-04-15T03:51:47.729Z,52.50
2023-04-15T03:54:14.410Z,48.00
2023-04-15T03:56:41.037Z,64.00
2023-04-15T03:59:07.691Z,60.00
2023-04-15T04:01:35.695Z,42.00
2023-04-15T04:04:02.531Z,49.25
2023-04-15T04:06:29.195Z,78.00
2023-04-15T04:08:55.990Z,51.50
2023-04-15T04:11:22.623Z,34.75
2023-04-15T04:13:49.244Z,40.25
2023-04-15T04:16:16.455Z,86.60
2023-04-15T04:18:44.587Z,967.00
2023-04-15T04:21:11.469Z,35.33
2023-04-15T04:23:38.184Z,478.40
2023-04-15T04:26:04.904Z,26.33
2023-04-15T04:28:31.533Z,32.67
2023-04-15T04:30:58.297Z,28.00
2023-04-15T04:33:25.058Z,26.00
2023-04-15T04:35:53.055Z,31.33
2023-04-15T04:38:19.880Z,28.00
2023-04-15T04:40:46.464Z,28.00
2023-04-15T04:43:13.112Z,24.00
2023-04-15T04:45:39.793Z,26.00
2023-04-15T04:48:06.616Z,27.67
2023-04-15T04:50:33.369Z,28.00
2023-04-15T04:53:01.822Z,40.33
2023-04-15T04:55:28.454Z,52.67
2023-04-15T04:57:55.088Z,38.33
2023-04-15T05:00:21.979Z,44.00
2023-04-15T05:02:48.885Z,46.00
2023-04-15T05:05:15.577Z,48.25
2023-04-15T05:07:44.274Z,36.33
2023-04-15T05:10:12.340Z,42.33
2023-04-15T05:12:39.014Z,43.00
2023-04-15T05:15:09.034Z,41.33
2023-04-15T05:17:35.831Z,44.00
2023-04-15T05:20:02.523Z,42.67
2023-04-15T05:22:29.419Z,54.67
2023-04-15T05:24:56.058Z,61.50
2023-04-15T05:27:24.009Z,60.00
2023-04-15T05:29:50.579Z,49.00
2023-04-15T05:32:17.393Z,56.25
2023-04-15T05:34:43.990Z,60.00
2023-04-15T05:37:10.738Z,56.50
2023-04-15T05:39:38.535Z,56.00
2023-04-15T05:42:05.242Z,53.75
2023-04-15T05:44:33.313Z,62.25
2023-04-15T05:46:59.952Z,72.50
2023-04-15T05:49:26.551Z,43.00
2023-04-15T05:51:53.125Z,69.75
2023-04-15T05:54:20.359Z,54.25
2023-04-15T05:56:47.126Z,31.00
2023-04-15T05:59:13.698Z,22.67
2023-04-15T06:01:41.943Z,30.00
2023-04-15T06:04:08.740Z,67.25
2023-04-15T06:06:35.501Z,25.75
2023-04-15T06:09:02.428Z,26.33
2023-04-15T06:11:29.297Z,34.00
2023-04-15T06:13:56.223Z,38.67
2023-04-15T06:16:22.841Z,56.00
2023-04-15T06:18:50.948Z,83.25
2023-04-15T06:21:17.644Z,57.67
2023-04-15T06:23:44.640Z,33.25
2023-04-15T06:26:11.248Z,39.00
2023-04-15T06:28:37.832Z,31.00
2023-04-15T06:31:04.610Z,35.75
2023-04-15T06:33:31.919Z,79.00
2023-04-15T06:35:59.946Z,68.25
2023-04-15T06:38:26.535Z,1385.60
2023-04-15T06:40:53.320Z,669.75
2023-04-15T06:43:19.914Z,53.75
2023-04-15T06:45:46.483Z,71.00
2023-04-15T06:48:13.167Z,54.00
2023-04-15T06:50:40.157Z,61.75
2023-04-15T06:53:08.319Z,368.75
2023-04-15T06:55:35.211Z,241.60
2023-04-15T06:58:01.779Z,89.00
2023-04-15T07:00:28.509Z,89.80
2023-04-15T07:02:55.492Z,80.80
2023-04-15T07:05:22.132Z,98.25
2023-04-15T07:07:48.734Z,91.60
2023-04-15T07:10:17.144Z,68.75
2023-04-15T07:12:43.811Z,39.67
2023-04-15T07:15:11.321Z,40.67
2023-04-15T07:17:37.973Z,39.50
2023-04-15T07:20:05.348Z,50.50
2023-04-15T07:22:32.029Z,106.25
2023-04-15T07:24:58.677Z,92.80
2023-04-15T07:27:26.798Z,391.00
2023-04-15T07:29:53.470Z,86.80
2023-04-15T07:32:20.332Z,1814.20
2023-04-15T07:34:46.924Z,112.40
2023-04-15T07:37:13.728Z,2470.75
2023-04-15T07:39:40.379Z,3741.50
2023-04-15T07:42:07.022Z,3775.00
2023-04-15T07:44:34.999Z,3847.00
2023-04-15T07:47:02.781Z,3844.50
2023-04-15T07:49:29.688Z,2695.80
2023-04-15T07:51:56.343Z,3368.40
2023-04-15T07:54:25.319Z,3786.80
2023-04-15T07:56:52.165Z,3802.20
2023-04-15T07:59:18.874Z,3756.20
2023-04-15T08:01:46.961Z,3726.80
2023-04-15T08:04:13.701Z,3726.80
2023-04-15T08:06:40.460Z,3719.60
2023-04-15T08:09:07.450Z,3681.00
2023-04-15T08:11:36.161Z,3693.80
2023-04-15T08:14:02.869Z,3705.25
2023-04-15T08:16:29.644Z,3719.60
2023-04-15T08:18:58.058Z,3713.20
2023-04-15T08:21:24.885Z,3418.75
2023-04-15T08:23:52.899Z,3597.00
2023-04-15T08:26:20.457Z,3596.75
2023-04-15T08:28:47.181Z,3658.80
2023-04-15T08:31:16.346Z,3657.00
2023-04-15T08:33:43.099Z,3652.20
2023-04-15T08:36:11.112Z,3669.80
2023-04-15T08:38:37.919Z,3682.60
2023-04-15T08:41:11.840Z,2252.25
2023-04-15T08:43:46.713Z,3453.40
2023-04-15T08:46:13.582Z,3589.60
2023-04-15T08:48:40.315Z,3569.20
2023-04-15T08:51:07.409Z,3601.00
2023-04-15T08:53:35.824Z,3622.60
2023-04-15T08:56:05.222Z,3593.80
2023-04-15T08:58:32.381Z,3579.60
2023-04-15T09:00:59.296Z,3575.75
2023-04-15T09:03:26.505Z,3570.75
2023-04-15T09:05:54.817Z,3571.00
2023-04-15T09:08:21.467Z,3535.00
2023-04-15T09:10:49.823Z,3534.60
2023-04-15T09:13:19.571Z,3490.00
2023-04-15T09:15:46.468Z,3520.25
2023-04-15T09:18:26.843Z,3496.80
2023-04-15T09:20:55.858Z,3542.00
2023-04-15T09:23:22.912Z,3535.00
2023-04-15T09:25:51.079Z,3568.00
2023-04-15T09:28:24.774Z,3599.60
2023-04-15T09:30:52.886Z,3637.75
2023-04-15T09:33:19.544Z,3655.40
2023-04-15T09:35:57.423Z,3599.60
2023-04-15T09:38:24.067Z,3607.60
2023-04-15T09:40:52.236Z,3524.80
2023-04-15T09:43:18.981Z,3508.00
2023-04-15T09:45:49.248Z,3495.40
2023-04-15T09:48:18.325Z,3476.50
2023-04-15T09:50:44.979Z,3476.20
2023-04-15T09:53:11.945Z,3498.20
2023-04-15T09:55:39.745Z,3487.75
2023-04-15T09:58:18.029Z,3514.25
2023-04-15T10:00:47.208Z,3531.60
2023-04-15T10:03:19.021Z,3595.00
2023-04-15T10:05:48.196Z,3503.75
2023-04-15T10:08:15.999Z,3595.00
2023-04-15T10:10:42.904Z,3569.20
2023-04-15T10:13:13.129Z,3553.00
2023-04-15T10:15:43.817Z,3495.20
2023-04-15T10:18:13.155Z,3426.00
2023-04-15T10:20:42.263Z,3418.60
2023-04-15T10:23:11.001Z,3393.00
2023-04-15T10:25:38.999Z,3406.00
2023-04-15T10:28:07.299Z,2714.50
2023-04-15T10:30:36.657Z,3356.50
2023-04-15T10:33:04.114Z,2920.80
2023-04-15T10:35:32.357Z,3014.20
2023-04-15T10:37:58.911Z,3197.80
2023-04-15T10:40:27.784Z,2716.40
2023-04-15T10:42:55.427Z,3526.00
2023-04-15T10:45:22.512Z,3549.50
2023-04-15T10:47:55.609Z,3423.75
2023-04-15T10:50:22.541Z,2247.25
2023-04-15T10:52:51.558Z,1020.25
2023-04-15T10:55:21.320Z,428.20
2023-04-15T10:57:52.704Z,509.00
2023-04-15T11:00:26.260Z,46.00
2023-04-15T11:02:56.776Z,45.50
2023-04-15T11:05:44.405Z,87.80
2023-04-15T11:08:12.893Z,95.75
2023-04-15T11:10:54.393Z,449.60
2023-04-15T11:13:25.672Z,43.75
2023-04-15T11:15:56.891Z,20.00
2023-04-15T11:18:27.187Z,11.50
2023-04-15T11:20:56.590Z,14.25
2023-04-15T11:23:32.259Z,26.00
2023-04-15T11:26:00.452Z,20.75
2023-04-15T11:28:28.581Z,8.00
2023-04-15T11:30:55.964Z,3.75
2023-04-15T11:33:23.377Z,7.25
2023-04-15T11:35:53.175Z,7.25
2023-04-15T11:38:20.230Z,15.75
2023-04-15T11:40:47.349Z,44.50
2023-04-15T11:43:16.066Z,55.33
2023-04-15T11:45:51.210Z,56.50
2023-04-15T11:48:19.029Z,47.25
2023-04-15T11:50:46.616Z,52.50
2023-04-15T11:53:14.702Z,38.50
2023-04-15T11:55:43.205Z,16.25
2023-04-15T11:58:10.809Z,9.00
2023-04-15T12:00:38.499Z,5.00
2023-04-15T12:03:19.486Z,6.25
2023-04-15T12:06:10.251Z,3.25
2023-04-15T12:09:14.466Z,32.50
2023-04-15T12:11:45.926Z,47.00
2023-04-15T12:14:18.533Z,52.25
2023-04-15T12:16:48.656Z,39.00
2023-04-15T12:19:23.567Z,22.50
2023-04-15T12:21:50.699Z,20.75
2023-04-15T12:24:21.609Z,66.50
2023-04-15T12:26:49.738Z,35.00
2023-04-15T12:29:17.448Z,13.75
2023-04-15T12:31:48.921Z,43.25
2023-04-15T12:34:15.527Z,49.25
2023-04-15T12:36:42.460Z,6.25
2023-04-15T12:39:09.479Z,10.75
2023-04-15T12:41:37.636Z,33.75
2023-04-15T12:44:04.470Z,8.50
2023-04-15T12:46:31.461Z,5.50
2023-04-15T12:48:58.533Z,3.25
2023-04-15T12:51:25.180Z,8.75
2023-04-15T12:53:51.791Z,6.25
2023-04-15T12:56:18.347Z,7.00
2023-04-15T12:58:46.287Z,14.75
2023-04-15T13:01:12.978Z,9.00
2023-04-15T13:03:39.704Z,11.00
2023-04-15T13:06:06.412Z,7.75
2023-04-15T13:08:33.144Z,9.00
2023-04-15T13:10:59.858Z,6.25
2023-04-15T13:13:26.819Z,15.75
2023-04-15T13:15:54.857Z,2.75
2023-04-15T13:18:21.486Z,13.00
2023-04-15T13:20:48.405Z,10.50
2023-04-15T13:23:15.122Z,4.40
2023-04-15T13:25:41.753Z,7.40
2023-04-15T13:28:08.468Z,7.20
2023-04-15T13:30:37.631Z,6.00
2023-04-15T13:33:05.890Z,7.00
2023-04-15T13:35:32.822Z,8.25
2023-04-15T13:37:59.402Z,10.75
2023-04-15T13:40:26.205Z,12.75
2023-04-15T13:42:52.773Z,12.25
2023-04-15T13:45:19.469Z,7.50
2023-04-15T13:47:46.171Z,8.25
2023-04-15T13:50:14.140Z,8.00
2023-04-15T13:52:40.779Z,11.50
2023-04-15T13:55:18.814Z,10.75
2023-04-15T13:57:47.973Z,8.75
2023-04-15T14:00:15.238Z,6.50
2023-04-15T14:02:42.024Z,7.00
2023-04-15T14:05:09.643Z,9.25
2023-04-15T14:07:37.844Z,5.75
2023-04-15T14:10:05.306Z,18.75
2023-04-15T14:12:31.939Z,17.00
2023-04-15T14:14:58.616Z,11.00
2023-04-15T14:17:25.285Z,15.50
2023-04-15T14:19:51.939Z,6.75
2023-04-15T14:22:18.535Z,11.50
2023-04-15T14:24:49.999Z,13.25
2023-04-15T14:27:16.597Z,11.50
2023-04-15T14:29:43.219Z,9.75
2023-04-15T14:32:12.063Z,18.25
2023-04-15T14:34:39.769Z,12.50
2023-04-15T14:37:06.520Z,13.75
2023-04-15T14:39:33.199Z,8.00
2023-04-15T14:42:01.189Z,11.75
2023-04-15T14:44:27.819Z,6.50
2023-04-15T14:46:54.634Z,10.25
2023-04-15T14:49:21.292Z,13.50
2023-04-15T14:51:47.972Z,11.50
2023-04-15T14:54:15.085Z,9.50
2023-04-15T14:56:41.666Z,12.00
2023-04-15T14:59:09.707Z,8.75
2023-04-15T15:01:36.517Z,9.00
2023-04-15T15:04:04.128Z,6.50
2023-04-15T15:06:30.989Z,8.00
2023-04-15T15:08:57.728Z,11.75
2023-04-15T15:11:24.355Z,9.00
2023-04-15T15:13:51.013Z,9.20
2023-04-15T15:16:19.089Z,7.25
2023-04-15T15:18:45.687Z,7.00
2023-04-15T15:21:13.353Z,8.60
2023-04-15T15:23:39.919Z,8.20
2023-04-15T15:26:06.584Z,9.00
2023-04-15T15:28:37.491Z,6.80
2023-04-15T15:31:04.116Z,14.60
2023-04-15T15:33:32.275Z,11.40
2023-04-15T15:35:59.042Z,8.80
2023-04-15T15:38:25.672Z,11.80
2023-04-15T15:40:52.279Z,12.00
2023-04-15T15:43:19.006Z,11.75
2023-04-15T15:45:45.693Z,17.75
2023-04-15T15:48:12.286Z,7.50
2023-04-15T15:50:40.383Z,9.50
2023-04-15T15:53:06.968Z,15.67
2023-04-15T15:55:33.807Z,15.50
2023-04-15T15:58:00.683Z,6.00
2023-04-15T16:00:27.277Z,10.25
2023-04-15T16:03:06.852Z,6.00
2023-04-15T16:05:34.294Z,9.50
2023-04-15T16:08:02.353Z,7.25
2023-04-15T16:10:29.059Z,8.75
2023-04-15T16:12:57.754Z,11.00
2023-04-15T16:15:25.969Z,7.25
2023-04-15T16:17:52.961Z,13.25
2023-04-15T16:20:19.631Z,7.50
2023-04-15T16:22:46.294Z,10.75
2023-04-15T16:25:14.309Z,5.00
2023-04-15T16:27:57.085Z,7.00
2023-04-15T16:30:26.153Z,6.40
2023-04-15T16:32:53.163Z,8.40
2023-04-15T16:35:20.030Z,9.25
2023-04-15T16:37:46.885Z,10.00
2023-04-15T16:40:15.147Z,7.50
2023-04-15T16:42:41.909Z,6.00
2023-04-15T16:45:09.444Z,7.50
2023-04-15T16:47:36.186Z,6.75
2023-04-15T16:50:03.389Z,8.25
2023-04-15T16:52:30.259Z,6.00
2023-04-15T16:54:56.936Z,10.00
2023-04-15T16:57:25.197Z,4.50
2023-04-15T16:59:59.360Z,6.75
2023-04-15T17:02:26.329Z,6.50
2023-04-15T17:04:53.164Z,6.25
2023-04-15T17:07:20.871Z,7.00
2023-04-15T17:09:47.581Z,8.00
2023-04-15T17:12:14.576Z,6.25
2023-04-15T17:14:50.010Z,13.00
2023-04-15T17:17:16.796Z,1.75
2023-04-15T17:19:43.574Z,5.00
2023-04-15T17:22:10.979Z,8.75
2023-04-15T17:24:37.683Z,4.00
2023-04-15T17:27:04.506Z,8.00
2023-04-15T17:29:31.249Z,9.50
2023-04-15T17:32:00.246Z,5.50
2023-04-15T17:34:28.120Z,13.00
2023-04-15T17:37:15.620Z,69.75
2023-04-15T17:39:42.276Z,37.33
2023-04-15T17:42:10.058Z,18.00
2023-04-15T17:44:36.654Z,11.00
2023-04-15T17:47:04.740Z,18.33
2023-04-15T17:49:31.428Z,13.00
2023-04-15T17:52:37.687Z,35.00
2023-04-15T17:55:04.935Z,10.25
2023-04-15T17:57:31.650Z,19.00
2023-04-15T17:59:58.544Z,14.75
2023-04-15T18:02:25.325Z,44.25
2023-04-15T18:04:52.087Z,29.25
2023-04-15T18:07:18.842Z,51.33
2023-04-15T18:09:46.907Z,99.60
2023-04-15T18:12:13.513Z,84.40
2023-04-15T18:14:40.131Z,101.75
2023-04-15T18:17:07.309Z,98.60
2023-04-15T18:19:34.262Z,104.60
2023-04-15T18:22:01.036Z,766.75
2023-04-15T18:24:27.807Z,969.40
2023-04-15T18:26:55.843Z,116.80
2023-04-15T18:29:22.549Z,949.00
2023-04-15T18:31:50.190Z,2647.25
2023-04-15T18:34:16.886Z,1385.50
2023-04-15T18:36:43.601Z,3037.00
2023-04-15T18:39:10.318Z,2382.40
2023-04-15T18:41:36.923Z,2606.40
2023-04-15T18:44:04.961Z,182.00
2023-04-15T18:46:31.592Z,120.40
2023-04-15T18:48:58.224Z,1881.75
2023-04-15T18:51:24.911Z,434.00
2023-04-15T18:53:51.609Z,140.20
2023-04-15T18:56:18.225Z,129.20
2023-04-15T18:59:21.254Z,32.50
2023-04-15T19:01:32.905Z,416.00
2023-04-15T19:03:59.673Z,98.20
2023-04-15T19:06:26.571Z,62.00
2023-04-15T19:08:53.189Z,2477.00
2023-04-15T19:11:19.848Z,41.00
2023-04-15T19:13:46.478Z,3969.00
2023-04-15T19:16:13.372Z,4103.00
2023-04-15T19:18:41.394Z,3689.00
2023-04-15T19:21:08.170Z,1975.00
2023-04-15T19:23:34.861Z,704.00
2023-04-15T19:26:01.584Z,4111.00
2023-04-15T19:28:28.269Z,348.60
2023-04-15T19:30:55.114Z,955.25
2023-04-15T19:33:21.865Z,3901.00
2023-04-15T19:35:49.919Z,3966.00
2023-04-15T19:38:16.827Z,3981.75
2023-04-15T19:40:43.512Z,4111.00
2023-04-15T19:43:10.115Z,3293.00
2023-04-15T19:45:36.898Z,113.80
2023-04-15T19:48:04.278Z,84.50
2023-04-15T19:50:31.957Z,913.20
2023-04-15T19:53:00.001Z,3983.33
2023-04-15T19:55:27.598Z,3183.25
2023-04-15T19:57:54.167Z,108.80
2023-04-15T20:00:21.192Z,81.00
2023-04-15T20:02:47.997Z,3613.80
2023-04-15T20:05:14.816Z,586.40
2023-04-15T20:07:41.602Z,604.50
2023-04-15T20:10:12.470Z,2106.60
2023-04-15T20:12:50.746Z,105.80
2023-04-15T20:15:19.906Z,105.80
2023-04-15T20:17:46.675Z,104.00
2023-04-15T20:20:13.522Z,103.00
2023-04-15T20:22:40.168Z,101.40
2023-04-15T20:25:09.119Z,4034.20
2023-04-15T20:27:35.746Z,3813.50
2023-04-15T20:30:02.583Z,2960.25
2023-04-15T20:32:29.156Z,4097.00
2023-04-15T20:34:55.821Z,677.80
2023-04-15T20:37:22.631Z,4117.40
2023-04-15T20:39:49.319Z,107.00
2023-04-15T20:42:18.510Z,2110.40
2023-04-15T20:44:45.231Z,4116.00
2023-04-15T20:47:11.848Z,1302.00
2023-04-15T20:49:40.005Z,90.50
2023-04-15T20:52:07.557Z,96.20
2023-04-15T20:54:34.319Z,4047.80
2023-04-15T20:57:01.184Z,4005.00
2023-04-15T20:59:29.208Z,126.00
2023-04-15T21:01:56.011Z,104.00
2023-04-15T21:04:22.689Z,4163.60
2023-04-15T21:06:49.255Z,2507.40
2023-04-15T21:09:15.880Z,3637.00
2023-04-15T21:11:59.757Z,612.60
2023-04-15T21:14:29.725Z,28.25
2023-04-15T21:16:56.956Z,84.75
2023-04-15T21:19:23.597Z,4014.50
2023-04-15T21:21:50.268Z,1723.00
2023-04-15T21:24:17.099Z,2498.60
2023-04-15T21:26:43.790Z,2510.00
2023-04-15T21:29:11.645Z,430.60
2023-04-15T21:31:42.528Z,104.40
2023-04-15T21:34:10.038Z,2490.80
2023-04-15T21:36:37.520Z,3645.20
2023-04-15T21:39:05.051Z,4103.00
2023-04-15T21:41:32.084Z,1288.40
2023-04-15T21:43:58.841Z,3865.40
2023-04-15T21:46:33.213Z,579.20
2023-04-15T21:49:03.817Z,3428.50
2023-04-15T21:51:30.590Z,1015.50
2023-04-15T21:53:57.233Z,2325.25
2023-04-15T21:56:23.976Z,357.40
2023-04-15T21:58:50.660Z,1415.75
2023-04-15T22:01:17.405Z,1232.75
2023-04-15T22:03:44.397Z,2021.25
2023-04-15T22:06:12.514Z,2497.80
2023-04-15T22:08:52.481Z,3648.00
2023-04-15T22:11:22.534Z,2504.50
2023-04-15T22:13:49.121Z,3546.25
2023-04-15T22:16:15.732Z,3812.75
2023-04-15T22:18:42.456Z,3453.00
2023-04-15T22:21:09.091Z,3739.75
2023-04-15T22:23:37.013Z,4126.00
2023-04-15T22:26:04.604Z,1502.50
2023-04-15T22:28:31.174Z,3907.60
2023-04-15T22:30:57.760Z,3648.50
2023-04-15T22:33:24.691Z,4169.25
2023-04-15T22:35:51.281Z,3630.25
2023-04-15T22:38:17.893Z,2069.80
2023-04-15T22:40:47.018Z,31.75
2023-04-15T22:43:13.665Z,3626.50
2023-04-15T22:45:40.226Z,4107.40
2023-04-15T22:48:06.923Z,2106.40
2023-04-15T22:50:33.572Z,3755.75
2023-04-15T22:53:01.320Z,3771.00
2023-04-15T22:55:28.045Z,4084.00
2023-04-15T22:57:56.082Z,2891.25
2023-04-15T23:00:22.744Z,3900.00
2023-04-15T23:02:49.781Z,4057.00
2023-04-15T23:05:16.637Z,4127.00
2023-04-15T23:07:43.311Z,4143.80
2023-04-15T23:10:10.312Z,3313.25
2023-04-15T23:12:37.065Z,4129.00
2023-04-15T23:15:06.037Z,36.50
2023-04-15T23:17:32.806Z,35.50
2023-04-15T23:19:59.468Z,4153.60
2023-04-15T23:22:26.160Z,759.00
2023-04-15T23:24:52.849Z,2525.00
2023-04-15T23:27:19.522Z,112.60
2023-04-15T23:29:46.260Z,68.80
2023-04-15T23:32:14.462Z,111.80
2023-04-15T23:34:41.134Z,90.20
2023-04-15T23:37:07.777Z,69.33
2023-04-15T23:39:35.496Z,2304.25
2023-04-15T23:42:02.202Z,1479.75
2023-04-15T23:44:28.804Z,27.75
2023-04-15T23:46:55.599Z,33.75
2023-04-15T23:49:23.730Z,35.00
2023-04-15T23:51:50.543Z,3535.00
2023-04-15T23:54:17.320Z,3646.50
2023-04-15T23:56:43.992Z,4106.00
2023-04-15T23:59:10.871Z,4169.75
